Time;durP1;ratioP1;P1;durP2;ratioP2;P2;SDS_P1;SDS_P2;PMS_P1;PMS_P2;Temp;Humidity;BMP_temperature;BMP_pressure;BME280_temperature;BME280_humidity;BME280_pressure;Samples;Min_cycle;Max_cycle;Signal;HPM_P1;HPM_P2
2022/11/01 00:00:48;;;;;;;12.65;6.03;;;13.70;99.90;;;;;;4956881;28;20051;-74
2022/11/01 00:03:13;;;;;;;15.55;7.50;;;13.70;99.90;;;;;;4963141;28;20050;-74
2022/11/01 00:05:39;;;;;;;14.07;6.55;;;13.80;99.90;;;;;;4958175;28;20148;-74
2022/11/01 00:08:05;;;;;;;14.35;6.45;;;13.70;99.90;;;;;;4956985;28;20043;-74
2022/11/01 00:10:31;;;;;;;16.13;7.50;;;13.70;99.90;;;;;;4966380;28;20039;-75
2022/11/01 00:12:56;;;;;;;17.83;6.82;;;13.80;99.90;;;;;;4970100;28;20046;-75
2022/11/01 00:15:22;;;;;;;17.25;7.07;;;13.80;99.90;;;;;;4965010;28;20311;-74
2022/11/01 00:17:48;;;;;;;15.25;6.25;;;13.70;99.90;;;;;;4955247;28;20076;-74
2022/11/01 00:20:14;;;;;;;11.63;6.18;;;13.80;99.90;;;;;;4965224;28;20109;-74
2022/11/01 00:22:39;;;;;;;13.60;6.32;;;13.80;99.90;;;;;;4958408;28;20143;-74
2022/11/01 00:25:05;;;;;;;12.20;6.05;;;13.80;99.90;;;;;;4963239;28;20487;-74
2022/11/01 00:27:31;;;;;;;12.63;6.68;;;13.80;99.90;;;;;;4961269;28;20046;-75
2022/11/01 00:29:56;;;;;;;17.80;6.57;;;13.80;99.90;;;;;;4964516;28;20038;-73
2022/11/01 00:32:22;;;;;;;12.13;5.43;;;13.80;99.90;;;;;;4957862;28;20524;-74
2022/11/01 00:34:48;;;;;;;10.93;5.85;;;13.80;99.90;;;;;;4953740;28;20470;-74
2022/11/01 00:37:14;;;;;;;16.08;6.38;;;13.80;99.90;;;;;;4954110;28;20521;-74
2022/11/01 00:39:39;;;;;;;14.25;5.55;;;13.80;99.90;;;;;;4958252;28;20104;-75
2022/11/01 00:42:06;;;;;;;12.13;5.80;;;13.90;99.90;;;;;;4964041;28;20543;-73
2022/11/01 00:44:32;;;;;;;14.88;6.57;;;13.90;99.90;;;;;;4964613;28;20250;-74
2022/11/01 00:46:57;;;;;;;10.77;5.63;;;13.90;99.90;;;;;;4966572;28;20548;-74
2022/11/01 00:49:23;;;;;;;10.20;5.43;;;13.90;99.90;;;;;;4953888;28;20196;-74
2022/11/01 00:51:49;;;;;;;11.98;5.53;;;13.90;99.90;;;;;;4955799;28;20354;-74
2022/11/01 00:54:14;;;;;;;12.57;5.43;;;13.90;99.90;;;;;;4962987;28;20053;-74
2022/11/01 00:56:40;;;;;;;13.40;5.38;;;13.90;99.90;;;;;;4966130;28;20334;-74
2022/11/01 00:59:06;;;;;;;14.30;6.10;;;14.00;99.90;;;;;;4968288;28;20579;-74
2022/11/01 01:01:31;;;;;;;9.75;5.03;;;13.90;99.90;;;;;;4948845;28;20043;-74
2022/11/01 01:03:57;;;;;;;11.93;5.15;;;14.00;99.90;;;;;;4974687;28;20393;-74
2022/11/01 01:06:23;;;;;;;10.65;4.82;;;14.00;99.90;;;;;;4965591;28;20089;-74
2022/11/01 01:08:48;;;;;;;12.70;4.93;;;14.00;99.90;;;;;;4944340;28;20433;-74
2022/11/01 01:11:15;;;;;;;10.33;4.40;;;14.00;99.90;;;;;;4962432;28;20112;-74
2022/11/01 01:13:40;;;;;;;12.77;5.38;;;14.10;99.90;;;;;;4948708;28;20137;-74
2022/11/01 01:16:11;;;;;;;10.35;5.07;;;14.10;99.90;;;;;;4965208;28;20142;-75
2022/11/01 01:18:37;;;;;;;11.05;5.07;;;14.00;99.90;;;;;;4954636;28;20051;-74
2022/11/01 01:21:03;;;;;;;13.40;5.10;;;14.10;99.90;;;;;;4962274;28;20042;-74
2022/11/01 01:23:29;;;;;;;9.43;4.10;;;14.10;99.90;;;;;;4964823;28;20051;-75
2022/11/01 01:25:55;;;;;;;11.38;4.57;;;14.10;99.90;;;;;;4966092;28;20117;-74
2022/11/01 01:28:21;;;;;;;8.02;4.22;;;14.10;99.90;;;;;;4964789;28;20035;-74
2022/11/01 01:30:46;;;;;;;10.27;4.23;;;14.10;99.90;;;;;;4981465;28;20125;-74
2022/11/01 01:33:12;;;;;;;11.10;4.38;;;14.20;99.90;;;;;;4963513;28;20467;-74
2022/11/01 01:35:38;;;;;;;7.57;4.45;;;14.20;99.90;;;;;;4966660;28;20042;-74
2022/11/01 01:38:04;;;;;;;11.50;5.20;;;14.20;99.90;;;;;;4967057;28;20413;-74
2022/11/01 01:40:30;;;;;;;;;;;14.20;99.90;;;;;;4958221;28;20077;-74
2022/11/01 01:42:56;;;;;;;11.60;4.22;;;14.20;99.90;;;;;;4969895;28;19941;-74
2022/11/01 01:45:37;;;;;;;10.25;5.97;;;14.20;99.90;;;;;;4965349;28;20043;-74
2022/11/01 01:48:06;;;;;;;11.70;4.70;;;14.20;99.90;;;;;;4959394;28;20185;-73
2022/11/01 01:50:40;;;;;;;9.18;4.50;;;14.20;99.90;;;;;;4968214;28;20504;-74
2022/11/01 01:53:14;;;;;;;10.45;3.83;;;14.20;99.90;;;;;;4960896;28;20055;-73
2022/11/01 01:55:50;;;;;;;10.98;4.20;;;14.20;99.90;;;;;;4958158;28;20035;-74
2022/11/01 01:58:20;;;;;;;10.30;4.50;;;14.20;99.90;;;;;;4972840;28;20158;-74
2022/11/01 02:00:46;;;;;;;7.55;4.05;;;14.20;99.90;;;;;;4961173;28;20042;-74
2022/11/01 02:03:13;;;;;;;10.13;4.38;;;14.20;99.90;;;;;;4955262;28;20328;-74
2022/11/01 02:05:45;;;;;;;11.15;4.60;;;14.20;99.90;;;;;;4967128;28;20700;-73
2022/11/01 02:08:13;;;;;;;11.05;4.15;;;14.20;99.90;;;;;;4961560;28;20034;-74
2022/11/01 02:10:39;;;;;;;8.77;4.05;;;14.20;99.90;;;;;;4962307;28;20050;-74
2022/11/01 02:13:13;;;;;;;10.15;4.53;;;14.20;99.90;;;;;;4961372;28;20043;-74
2022/11/01 02:15:59;;;;;;;8.25;3.75;;;14.20;99.90;;;;;;4971185;28;20045;-74
2022/11/01 02:18:45;;;;;;;10.20;4.10;;;14.20;99.90;;;;;;4942026;28;20138;-74
2022/11/01 02:21:36;;;;;;;10.32;4.07;;;14.20;99.90;;;;;;4965205;28;20051;-74
2022/11/01 02:24:11;;;;;;;10.80;4.72;;;14.20;99.90;;;;;;4965601;28;20050;-74
2022/11/01 02:26:59;;;;;;;9.13;3.88;;;14.30;99.90;;;;;;4962300;28;20074;-74
2022/11/01 02:29:43;;;;;;;8.65;4.13;;;14.20;99.90;;;;;;4959727;28;20081;-73
2022/11/01 02:32:25;;;;;;;8.27;3.72;;;14.30;99.90;;;;;;4964593;28;20038;-74
2022/11/01 02:35:31;;;;;;;10.15;3.95;;;14.30;99.90;;;;;;4964216;28;20046;-74
2022/11/01 02:38:03;;;;;;;10.15;4.53;;;14.30;99.90;;;;;;4949600;28;20091;-74
2022/11/01 02:40:41;;;;;;;9.20;3.90;;;14.30;99.90;;;;;;4962785;28;20122;-74
2022/11/01 02:43:18;;;;;;;10.68;3.83;;;14.30;99.90;;;;;;4959582;28;20054;-74
2022/11/01 02:45:48;;;;;;;6.80;3.63;;;14.30;99.90;;;;;;4978615;28;20496;-74
2022/11/01 02:48:17;;;;;;;8.43;3.53;;;14.30;99.90;;;;;;4966111;28;20045;-74
2022/11/01 02:50:47;;;;;;;7.28;4.15;;;14.30;99.90;;;;;;4966814;28;20035;-74
2022/11/01 02:53:13;;;;;;;11.07;3.83;;;14.30;99.90;;;;;;4967680;28;20110;-75
2022/11/01 02:55:39;;;;;;;6.47;3.30;;;14.30;99.90;;;;;;4961214;28;20055;-74
2022/11/01 02:58:27;;;;;;;9.40;3.90;;;14.40;99.90;;;;;;4960720;28;20453;-74
2022/11/01 03:00:55;;;;;;;6.80;3.92;;;14.40;99.90;;;;;;4961932;28;20043;-74
2022/11/01 03:03:26;;;;;;;7.57;3.83;;;14.40;99.90;;;;;;5003345;23;20041;-70
2022/11/01 03:06:09;;;;;;;11.55;4.28;;;14.40;99.90;;;;;;4999429;28;20046;-71
2022/11/01 03:08:45;;;;;;;10.45;3.88;;;14.50;99.90;;;;;;4991799;28;20061;-71
2022/11/01 03:11:30;;;;;;;8.02;3.60;;;14.50;99.90;;;;;;4994837;28;20380;-70
2022/11/01 03:14:02;;;;;;;6.60;3.15;;;14.50;99.90;;;;;;4998100;28;20632;-71
2022/11/01 03:16:39;;;;;;;12.63;4.15;;;14.50;99.90;;;;;;4989677;28;20045;-71
2022/11/01 03:19:22;;;;;;;6.10;3.50;;;14.60;99.90;;;;;;5003230;28;20087;-71
2022/11/01 03:21:54;;;;;;;9.30;3.88;;;14.60;99.90;;;;;;4994870;28;20216;-71
2022/11/01 03:24:30;;;;;;;6.85;3.58;;;14.60;99.90;;;;;;5006002;28;20427;-71
2022/11/01 03:27:09;;;;;;;8.30;3.75;;;14.70;99.90;;;;;;5004360;28;20124;-71
2022/11/01 03:29:36;;;;;;;11.45;3.72;;;14.70;99.90;;;;;;4989080;28;20033;-71
2022/11/01 03:32:03;;;;;;;10.32;4.18;;;14.70;99.90;;;;;;5000975;28;20046;-71
2022/11/01 03:34:32;;;;;;;8.70;3.58;;;14.70;99.90;;;;;;5001525;28;20042;-71
2022/11/01 03:37:04;;;;;;;5.70;3.38;;;14.70;99.90;;;;;;4990323;28;20045;-71
2022/11/01 03:39:43;;;;;;;8.52;3.95;;;14.70;99.90;;;;;;4985213;28;20511;-71
2022/11/01 03:42:13;;;;;;;7.45;3.75;;;14.70;99.90;;;;;;5007791;28;20057;-70
2022/11/01 03:44:46;;;;;;;8.35;3.45;;;14.60;99.90;;;;;;4993335;28;20053;-71
2022/11/01 03:47:12;;;;;;;8.05;3.60;;;14.70;99.90;;;;;;4981747;28;20045;-71
2022/11/01 03:49:38;;;;;;;8.55;4.03;;;14.70;99.90;;;;;;4988348;28;20109;-71
2022/11/01 03:52:04;;;;;;;9.88;4.10;;;14.70;99.90;;;;;;4989189;28;20046;-70
2022/11/01 03:54:30;;;;;;;8.35;3.33;;;14.70;99.90;;;;;;5005652;28;20049;-71
2022/11/01 03:56:55;;;;;;;8.20;3.50;;;14.80;99.90;;;;;;4984917;28;20456;-70
2022/11/01 03:59:22;;;;;;;7.40;3.15;;;14.80;99.90;;;;;;5003179;28;20076;-71
2022/11/01 04:01:48;;;;;;;8.45;3.35;;;14.80;99.90;;;;;;4986170;28;20510;-71
2022/11/01 04:04:14;;;;;;;;;;;14.80;99.90;;;;;;5011278;28;20043;-71
2022/11/01 04:06:40;;;;;;;11.35;3.78;;;14.80;99.90;;;;;;4981384;28;19917;-71
2022/11/01 04:09:05;;;;;;;5.40;3.03;;;14.90;99.90;;;;;;4990231;28;20097;-71
2022/11/01 04:11:31;;;;;;;7.75;3.72;;;14.90;99.90;;;;;;4990043;28;20041;-71
2022/11/01 04:20:31;;;;;;;7.10;3.17;;;15.00;99.90;;;;;;4988559;28;20124;-71
2022/11/01 04:22:11;;;;;;;5.65;3.20;;;15.10;99.90;;;;;;5010680;28;20052;-71
2022/11/01 04:24:36;;;;;;;9.02;3.35;;;15.20;99.90;;;;;;4986321;28;20054;-71
2022/11/01 04:27:02;;;;;;;8.77;3.55;;;15.20;99.90;;;;;;5006893;28;20050;-70
2022/11/01 04:29:28;;;;;;;13.25;4.32;;;15.20;99.90;;;;;;5003895;28;20116;-71
2022/11/01 04:31:53;;;;;;;10.23;2.83;;;15.20;99.90;;;;;;5006211;28;20045;-72
2022/11/01 04:34:40;;;;;;;6.82;3.10;;;15.30;99.90;;;;;;4990017;28;20298;-71
2022/11/01 04:37:05;;;;;;;11.35;3.67;;;15.30;99.90;;;;;;4986343;28;20041;-71
2022/11/01 04:39:30;;;;;;;7.70;2.67;;;15.40;99.90;;;;;;5001427;28;20037;-72
2022/11/01 04:41:56;;;;;;;7.95;3.40;;;15.30;99.90;;;;;;4987355;28;20038;-71
2022/11/01 04:44:22;;;;;;;6.93;3.25;;;15.40;99.90;;;;;;5005276;28;20042;-71
2022/11/01 04:46:47;;;;;;;6.15;3.00;;;15.40;99.90;;;;;;4983029;28;20192;-71
2022/11/01 04:49:13;;;;;;;6.45;3.33;;;15.40;99.90;;;;;;4997337;28;20369;-71
2022/11/01 04:51:39;;;;;;;8.05;3.47;;;15.40;99.90;;;;;;5005770;28;20454;-71
2022/11/01 04:54:06;;;;;;;6.38;2.50;;;15.40;99.90;;;;;;4991460;28;20041;-71
2022/11/01 04:56:32;;;;;;;5.45;2.95;;;15.40;99.90;;;;;;4995335;28;20184;-71
2022/11/01 04:58:58;;;;;;;;;;;15.40;99.90;;;;;;5019612;28;20065;-70
2022/11/01 05:01:24;;;;;;;10.75;3.00;;;15.50;99.90;;;;;;5008441;28;20580;-71
2022/11/01 05:03:49;;;;;;;7.03;3.35;;;15.40;99.90;;;;;;5005443;28;20072;-71
2022/11/01 05:06:15;;;;;;;11.88;3.22;;;15.40;99.90;;;;;;4990159;28;20045;-71
2022/11/01 05:08:41;;;;;;;11.20;3.03;;;15.40;99.90;;;;;;5002901;28;20278;-71
2022/11/01 05:11:07;;;;;;;6.53;2.50;;;15.40;99.90;;;;;;5008614;28;20161;-71
2022/11/01 05:13:32;;;;;;;5.10;2.30;;;15.40;99.90;;;;;;4991711;28;20135;-71
2022/11/01 05:16:02;;;;;;;7.82;2.90;;;15.40;99.90;;;;;;4991113;28;20480;-71
2022/11/01 05:18:28;;;;;;;2.70;1.40;;;15.50;99.90;;;;;;5008065;28;20168;-70
2022/11/01 05:20:55;;;;;;;3.83;1.13;;;15.50;99.90;;;;;;4995671;28;20049;-71
2022/11/01 05:23:20;;;;;;;5.35;1.17;;;15.50;99.90;;;;;;4986147;28;20057;-71
2022/11/01 05:25:46;;;;;;;1.98;0.90;;;15.40;99.90;;;;;;5009658;28;20038;-71
2022/11/01 05:28:13;;;;;;;3.47;0.80;;;15.40;99.90;;;;;;5012809;28;20795;-71
2022/11/01 05:30:40;;;;;;;2.20;0.70;;;15.40;99.90;;;;;;5002878;28;20048;-72
2022/11/01 05:33:06;;;;;;;2.63;0.88;;;15.30;99.90;;;;;;4988294;28;20482;-71
2022/11/01 05:35:33;;;;;;;2.58;1.02;;;15.30;99.90;;;;;;5012918;28;20073;-72
2022/11/01 05:38:00;;;;;;;3.42;0.90;;;15.20;99.90;;;;;;5008963;28;20052;-72
2022/11/01 05:40:26;;;;;;;2.05;0.90;;;15.20;99.90;;;;;;4989709;28;20089;-72
2022/11/01 05:42:52;;;;;;;4.07;1.00;;;15.10;99.90;;;;;;5007528;28;20065;-72
2022/11/01 05:45:18;;;;;;;2.38;0.82;;;15.10;99.90;;;;;;5003409;28;20518;-72
2022/11/01 05:47:43;;;;;;;4.25;1.02;;;15.10;99.90;;;;;;4990226;28;20050;-72
2022/11/01 05:50:12;;;;;;;1.75;0.80;;;15.10;99.90;;;;;;4986212;28;20480;-72
2022/11/01 05:52:38;;;;;;;5.38;1.30;;;15.00;99.90;;;;;;5008271;28;20048;-72
2022/11/01 05:55:04;;;;;;;;;;;15.00;99.90;;;;;;4996088;28;20045;-72
2022/11/01 05:57:30;;;;;;;3.38;0.80;;;14.90;99.90;;;;;;4989102;28;19972;-72
2022/11/01 05:59:55;;;;;;;4.60;0.98;;;14.90;99.90;;;;;;5007442;28;20034;-72
2022/11/01 06:02:21;;;;;;;4.28;0.85;;;14.80;99.90;;;;;;4985379;28;20558;-72
2022/11/01 06:04:47;;;;;;;1.80;0.68;;;14.80;99.90;;;;;;4986493;28;20404;-72
2022/11/01 06:07:13;;;;;;;1.52;0.57;;;14.80;99.90;;;;;;4982415;28;20077;-72
2022/11/01 06:09:38;;;;;;;6.15;1.10;;;14.70;99.90;;;;;;4992042;28;20038;-72
2022/11/01 06:12:04;;;;;;;1.23;0.57;;;14.70;99.90;;;;;;5002668;28;20476;-72
2022/11/01 06:14:30;;;;;;;2.67;0.40;;;14.60;99.90;;;;;;5009311;28;20400;-72
2022/11/01 06:16:56;;;;;;;6.17;1.00;;;14.60;99.90;;;;;;5006295;28;20503;-72
2022/11/01 06:19:21;;;;;;;3.07;0.57;;;14.50;99.90;;;;;;5001845;28;20904;-72
2022/11/01 06:21:47;;;;;;;3.30;1.10;;;14.40;99.90;;;;;;5005380;28;20062;-73
2022/11/01 06:24:13;;;;;;;4.60;0.83;;;14.40;99.90;;;;;;4995090;28;20042;-73
2022/11/01 06:26:39;;;;;;;3.22;0.47;;;14.30;99.90;;;;;;5007556;28;20299;-73
2022/11/01 06:29:05;;;;;;;5.27;0.97;;;14.30;99.90;;;;;;4996757;28;20607;-72
2022/11/01 06:31:31;;;;;;;2.97;0.60;;;14.30;99.90;;;;;;5008839;28;20633;-72
2022/11/01 06:33:56;;;;;;;4.38;0.95;;;14.20;99.90;;;;;;5021302;28;20821;-72
2022/11/01 06:36:22;;;;;;;4.82;0.85;;;14.20;99.90;;;;;;5007560;28;20087;-73
2022/11/01 06:38:48;;;;;;;8.38;0.68;;;14.10;99.90;;;;;;4985590;28;20137;-75
2022/11/01 06:41:14;;;;;;;1.42;0.45;;;14.10;99.90;;;;;;4990957;28;20038;-73
2022/11/01 06:43:40;;;;;;;6.53;1.38;;;14.10;99.90;;;;;;4990529;28;20049;-71
2022/11/01 06:46:06;;;;;;;8.82;1.33;;;14.00;99.90;;;;;;5003591;28;20152;-72
2022/11/01 06:48:33;;;;;;;3.25;1.08;;;14.00;99.90;;;;;;5008022;28;20289;-71
2022/11/01 06:51:01;;;;;;;1.00;0.32;;;14.00;99.90;;;;;;5009714;28;20058;-71
2022/11/01 06:53:28;;;;;;;3.05;0.82;;;13.90;99.90;;;;;;5007589;28;20061;-71
2022/11/01 06:55:53;;;;;;;;;;;13.90;99.90;;;;;;5004978;28;20041;-72
2022/11/01 06:58:19;;;;;;;5.13;0.85;;;13.90;99.90;;;;;;4994526;28;19924;-74
2022/11/01 07:00:45;;;;;;;6.93;1.40;;;13.90;99.90;;;;;;4987487;28;20042;-72
2022/11/01 07:03:13;;;;;;;3.30;0.80;;;13.90;99.90;;;;;;4995225;28;20601;-74
2022/11/01 07:05:39;;;;;;;4.05;0.77;;;13.90;99.90;;;;;;4970326;28;20050;-72
2022/11/01 07:08:07;;;;;;;5.53;0.63;;;13.80;99.90;;;;;;4993295;28;20045;-74
2022/11/01 07:10:32;;;;;;;3.58;1.38;;;13.80;99.90;;;;;;5001382;28;20440;-71
2022/11/01 07:13:00;;;;;;;4.93;0.85;;;13.80;99.90;;;;;;4983755;28;20053;-72
2022/11/01 07:15:26;;;;;;;4.43;0.82;;;13.90;99.90;;;;;;4980056;28;20755;-72
2022/11/01 07:17:55;;;;;;;;;;;13.80;99.90;;;;;;4990987;28;20042;-72
2022/11/01 07:20:22;;;;;;;5.15;1.27;;;13.80;99.90;;;;;;5006490;28;19917;-71
2022/11/01 07:22:55;;;;;;;;;;;13.70;99.90;;;;;;5013930;28;20068;-71
2022/11/01 07:25:20;;;;;;;7.43;1.73;;;13.80;99.90;;;;;;5003178;28;19922;-74
2022/11/01 07:27:46;;;;;;;7.00;0.90;;;13.80;99.90;;;;;;4990142;28;20064;-72
2022/11/01 07:30:12;;;;;;;3.40;0.77;;;13.80;99.90;;;;;;4991651;28;20103;-74
2022/11/01 07:32:37;;;;;;;4.32;1.10;;;13.80;99.90;;;;;;5008305;28;20123;-72
2022/11/01 07:35:03;;;;;;;4.93;0.93;;;13.80;99.90;;;;;;5000094;28;20517;-73
2022/11/01 07:37:29;;;;;;;5.90;0.88;;;13.90;99.90;;;;;;5002039;28;20561;-71
2022/11/01 07:39:55;;;;;;;5.45;1.42;;;13.90;99.90;;;;;;4988354;28;20101;-72
2022/11/01 07:42:21;;;;;;;6.75;1.10;;;13.90;99.90;;;;;;5007001;28;20040;-73
2022/11/01 07:44:46;;;;;;;8.30;1.00;;;13.90;99.90;;;;;;5001697;28;20054;-70
2022/11/01 07:47:12;;;;;;;5.97;1.33;;;13.90;99.90;;;;;;5004532;28;20401;-71
2022/11/01 07:49:38;;;;;;;6.67;0.87;;;13.90;99.90;;;;;;5005261;28;20120;-71
2022/11/01 07:52:03;;;;;;;7.43;1.55;;;13.90;99.90;;;;;;5008166;28;20772;-71
2022/11/01 07:54:29;;;;;;;5.07;0.83;;;14.00;99.90;;;;;;4985867;28;20215;-71
2022/11/01 07:56:55;;;;;;;9.05;1.52;;;14.00;99.90;;;;;;5005126;28;20278;-71
2022/11/01 07:59:20;;;;;;;12.70;1.40;;;14.00;99.90;;;;;;4983966;28;20043;-71
2022/11/01 08:01:46;;;;;;;10.83;1.43;;;14.00;99.90;;;;;;4993885;28;20095;-71
2022/11/01 08:04:12;;;;;;;5.43;0.63;;;14.10;99.90;;;;;;4985405;28;20295;-72
2022/11/01 08:06:37;;;;;;;11.90;1.42;;;14.10;99.90;;;;;;4998255;28;20291;-70
2022/11/01 08:09:03;;;;;;;4.57;1.20;;;14.20;99.90;;;;;;5003664;28;20045;-72
2022/11/01 08:11:29;;;;;;;7.13;0.95;;;14.10;99.90;;;;;;5001647;28;20503;-71
2022/11/01 08:13:54;;;;;;;7.47;1.35;;;14.10;99.90;;;;;;4984634;28;20046;-70
2022/11/01 08:16:20;;;;;;;11.38;1.42;;;14.10;99.90;;;;;;4969827;28;20069;-72
2022/11/01 08:18:46;;;;;;;8.85;1.63;;;14.20;99.90;;;;;;5000208;28;20053;-71
2022/11/01 08:21:17;;;;;;;12.52;2.60;;;14.20;99.90;;;;;;4999783;28;20034;-72
2022/11/01 08:23:46;;;;;;;4.57;1.13;;;14.20;99.90;;;;;;4967638;28;20057;-71
2022/11/01 08:26:12;;;;;;;10.65;2.42;;;14.20;99.90;;;;;;4992973;28;20133;-72
2022/11/01 08:28:38;;;;;;;8.32;1.23;;;14.20;99.90;;;;;;5017922;28;20084;-71
2022/11/01 08:31:06;;;;;;;10.98;1.48;;;14.20;99.90;;;;;;5005505;28;20124;-71
2022/11/01 08:33:32;;;;;;;6.00;1.23;;;14.20;99.90;;;;;;5008857;28;20117;-72
2022/11/01 08:35:58;;;;;;;8.68;1.40;;;14.10;99.90;;;;;;4993807;28;20042;-72
2022/11/01 08:38:23;;;;;;;11.97;2.37;;;14.20;99.90;;;;;;4997958;28;20096;-71
2022/11/01 08:40:49;;;;;;;8.30;1.80;;;14.10;99.90;;;;;;5006291;28;20803;-72
2022/11/01 08:43:15;;;;;;;8.60;1.42;;;14.10;99.90;;;;;;4986450;28;20048;-72
2022/11/01 08:45:41;;;;;;;;;;;14.10;99.90;;;;;;4992785;28;20129;-71
2022/11/01 08:48:08;;;;;;;10.02;1.88;;;14.10;99.90;;;;;;5008898;28;20032;-71
2022/11/01 08:50:34;;;;;;;7.07;1.52;;;14.10;99.90;;;;;;5005988;28;20049;-72
2022/11/01 08:53:09;;;;;;;5.00;1.45;;;14.10;99.90;;;;;;5008451;28;20085;-72
2022/11/01 08:55:35;;;;;;;7.85;1.73;;;14.10;99.90;;;;;;5003037;28;20097;-72
2022/11/01 08:58:01;;;;;;;6.55;1.45;;;14.10;99.90;;;;;;5003994;28;20069;-71
2022/11/01 09:00:27;;;;;;;9.88;2.03;;;14.20;99.90;;;;;;5004705;28;20503;-71
2022/11/01 09:02:53;;;;;;;13.82;2.03;;;14.20;99.90;;;;;;5053721;23;20049;-75
2022/11/01 09:05:19;;;;;;;7.95;1.95;;;14.20;99.90;;;;;;4978207;28;20042;-75
2022/11/01 09:07:44;;;;;;;7.30;1.48;;;14.30;99.90;;;;;;4980235;28;20120;-75
2022/11/01 09:10:10;;;;;;;8.02;1.35;;;14.30;99.90;;;;;;5001409;28;20290;-75
2022/11/01 09:12:37;;;;;;;13.07;2.15;;;14.30;99.90;;;;;;4973655;28;20522;-75
2022/11/01 09:15:04;;;;;;;14.80;3.17;;;14.30;99.90;;;;;;4990807;28;20045;-75
2022/11/01 09:17:30;;;;;;;8.65;1.70;;;14.30;99.90;;;;;;4978339;28;20049;-75
2022/11/01 09:19:56;;;;;;;19.55;2.25;;;14.40;99.90;;;;;;4990112;28;20426;-75
2022/11/01 09:22:22;;;;;;;6.85;2.20;;;14.40;99.90;;;;;;4970020;28;20137;-75
2022/11/01 09:24:47;;;;;;;10.35;2.08;;;14.40;99.90;;;;;;4979310;28;20145;-75
2022/11/01 09:27:13;;;;;;;10.73;1.50;;;14.50;99.90;;;;;;4979777;28;20108;-75
2022/11/01 09:29:39;;;;;;;11.75;2.10;;;14.50;99.90;;;;;;4999529;28;20274;-75
2022/11/01 09:32:05;;;;;;;8.07;1.77;;;14.60;99.90;;;;;;4996214;28;20479;-75
2022/11/01 09:34:31;;;;;;;;;;;14.60;99.90;;;;;;5004794;28;20111;-75
2022/11/01 09:36:57;;;;;;;8.82;1.92;;;14.60;99.90;;;;;;4984457;28;19921;-75
2022/11/01 09:39:22;;;;;;;11.90;2.35;;;14.70;99.90;;;;;;5003533;28;20116;-75
2022/11/01 09:41:52;;;;;;;10.30;2.35;;;14.70;99.90;;;;;;4997177;28;20397;-75
2022/11/01 09:44:24;;;;;;;11.18;2.08;;;14.80;99.90;;;;;;4986994;28;20426;-74
2022/11/01 09:47:00;;;;;;;6.72;1.48;;;14.90;99.90;;;;;;4986181;28;20422;-74
2022/11/01 09:49:30;;;;;;;10.75;1.77;;;15.00;99.90;;;;;;4971618;28;20049;-75
2022/11/01 09:51:57;;;;;;;17.70;2.58;;;15.00;99.90;;;;;;4988120;28;20042;-75
2022/11/01 09:54:24;;;;;;;4.82;1.20;;;15.00;99.90;;;;;;4981908;28;20133;-75
2022/11/01 09:57:18;;;;;;;6.40;1.50;;;15.00;99.90;;;;;;4987835;28;20036;-75
2022/11/01 10:00:08;;;;;;;10.52;2.72;;;15.00;99.90;;;;;;4985419;28;20054;-75
2022/11/01 10:02:53;;;;;;;8.60;2.25;;;15.10;99.90;;;;;;4987236;28;20420;-75
2022/11/01 10:05:44;;;;;;;9.95;2.42;;;15.10;99.90;;;;;;4997186;28;20174;-74
2022/11/01 10:08:16;;;;;;;12.30;2.35;;;15.10;99.90;;;;;;4982189;28;20115;-75
2022/11/01 10:11:12;;;;;;;6.43;1.42;;;15.10;99.90;;;;;;5001345;28;20475;-75
2022/11/01 10:13:56;;;;;;;11.48;2.08;;;15.10;99.90;;;;;;4983167;28;20038;-76
2022/11/01 10:16:48;;;;;;;9.30;1.40;;;15.10;99.90;;;;;;4984716;28;20049;-75
2022/11/01 10:19:20;;;;;;;10.63;2.22;;;15.20;99.90;;;;;;4996439;28;20037;-75
2022/11/01 10:21:59;;;;;;;9.65;1.58;;;15.20;99.90;;;;;;5003396;28;20038;-75
2022/11/01 10:24:40;;;;;;;8.25;1.55;;;15.30;99.90;;;;;;4999748;28;20049;-74
2022/11/01 10:27:25;;;;;;;10.52;1.58;;;15.40;99.90;;;;;;4998765;28;20084;-75
2022/11/01 10:29:56;;;;;;;10.95;2.10;;;15.30;99.90;;;;;;4990587;28;20483;-75
2022/11/01 10:32:28;;;;;;;7.15;1.65;;;15.30;99.90;;;;;;4981802;28;20053;-75
2022/11/01 10:34:59;;;;;;;5.78;1.55;;;15.30;99.90;;;;;;4986434;28;20037;-75
2022/11/01 10:37:34;;;;;;;12.27;1.73;;;15.30;99.90;;;;;;4982656;28;20480;-75
2022/11/01 10:40:08;;;;;;;11.00;1.70;;;15.30;99.90;;;;;;5006268;28;20037;-75
2022/11/01 10:42:33;;;;;;;7.00;1.83;;;15.20;99.90;;;;;;4988453;28;20124;-75
2022/11/01 10:45:05;;;;;;;6.35;1.50;;;15.20;99.90;;;;;;4998034;28;20126;-74
2022/11/01 10:47:30;;;;;;;7.13;1.63;;;15.20;99.90;;;;;;4998573;28;20042;-74
2022/11/01 10:50:03;;;;;;;9.38;1.92;;;15.20;99.90;;;;;;4966380;28;20057;-75
2022/11/01 10:52:37;;;;;;;6.68;1.15;;;15.10;99.90;;;;;;4984624;28;20095;-75
2022/11/01 10:55:05;;;;;;;8.88;1.90;;;15.00;99.90;;;;;;5003847;28;20410;-75
2022/11/01 10:57:39;;;;;;;7.38;1.55;;;15.00;99.90;;;;;;5002444;28;20499;-75
2022/11/01 11:00:13;;;;;;;8.65;1.50;;;15.00;99.90;;;;;;4978060;28;20050;-76
2022/11/01 11:02:44;;;;;;;10.38;2.00;;;15.00;99.90;;;;;;4985768;28;20037;-75
2022/11/01 11:05:14;;;;;;;12.57;1.70;;;15.00;99.90;;;;;;4983407;28;20073;-75
2022/11/01 11:07:40;;;;;;;9.20;2.08;;;15.00;99.90;;;;;;4984165;28;20221;-75
2022/11/01 11:10:19;;;;;;;11.25;1.42;;;15.00;99.90;;;;;;5002041;28;20520;-76
2022/11/01 11:12:49;;;;;;;9.38;1.50;;;15.00;99.90;;;;;;5002597;28;20069;-75
2022/11/01 11:15:22;;;;;;;9.13;1.85;;;15.00;99.90;;;;;;5001013;28;20367;-75
2022/11/01 11:17:53;;;;;;;8.45;1.60;;;15.00;99.90;;;;;;4987895;28;20038;-75
2022/11/01 11:20:24;;;;;;;7.18;1.65;;;15.00;99.90;;;;;;4980691;28;20042;-75
2022/11/01 11:22:50;;;;;;;12.23;2.47;;;15.10;99.90;;;;;;5001830;28;20431;-75
2022/11/01 11:25:20;;;;;;;7.80;1.40;;;15.20;99.90;;;;;;4971034;28;20042;-75
2022/11/01 11:27:55;;;;;;;9.88;1.58;;;15.30;99.90;;;;;;4984939;28;20050;-75
2022/11/01 11:30:28;;;;;;;7.93;1.50;;;15.50;99.90;;;;;;5002878;28;20048;-75
2022/11/01 11:32:55;;;;;;;7.50;1.45;;;15.60;99.90;;;;;;4980390;28;20062;-75
2022/11/01 11:35:23;;;;;;;7.45;1.42;;;15.70;99.90;;;;;;4984622;28;20137;-75
2022/11/01 11:37:56;;;;;;;6.00;1.58;;;15.80;99.90;;;;;;4980497;28;20046;-75
2022/11/01 11:40:26;;;;;;;8.40;1.85;;;15.90;99.90;;;;;;4977914;28;20340;-75
2022/11/01 11:43:32;;;;;;;8.98;1.95;;;15.90;99.90;;;;;;4982448;28;20029;-75
2022/11/01 11:46:23;;;;;;;7.22;1.58;;;16.00;99.90;;;;;;5004779;28;20042;-75
2022/11/01 11:49:05;;;;;;;7.57;1.88;;;16.20;99.90;;;;;;4985069;28;20268;-75
2022/11/01 11:51:36;;;;;;;12.07;1.83;;;16.30;99.90;;;;;;4983054;28;20041;-75
2022/11/01 11:54:22;;;;;;;7.32;1.77;;;16.30;99.90;;;;;;4999223;28;20050;-75
2022/11/01 11:57:06;;;;;;;10.50;1.77;;;16.40;99.90;;;;;;4978851;28;20153;-75
2022/11/01 11:59:33;;;;;;;9.10;1.42;;;16.40;99.90;;;;;;4982503;28;20046;-75
2022/11/01 12:02:05;;;;;;;6.57;1.25;;;16.40;99.90;;;;;;4983733;28;20042;-74
2022/11/01 12:04:45;;;;;;;5.53;1.15;;;16.40;99.90;;;;;;4980882;28;20076;-74
2022/11/01 12:07:31;;;;;;;6.45;1.35;;;16.40;99.90;;;;;;5000015;28;20123;-75
2022/11/01 12:10:03;;;;;;;10.88;1.65;;;16.40;99.90;;;;;;4964814;28;20046;-74
2022/11/01 12:12:39;;;;;;;7.15;1.25;;;16.50;99.90;;;;;;4976403;28;20106;-74
2022/11/01 12:15:28;;;;;;;7.40;1.40;;;16.60;99.90;;;;;;4997575;28;20460;-75
2022/11/01 12:17:55;;;;;;;6.25;1.02;;;16.60;99.90;;;;;;4983413;28;20048;-75
2022/11/01 12:20:23;;;;;;;5.60;1.80;;;16.60;99.90;;;;;;5002533;28;20045;-74
2022/11/01 12:23:10;;;;;;;5.38;1.30;;;16.60;99.90;;;;;;4985914;28;20153;-75
2022/11/01 12:25:37;;;;;;;15.55;1.50;;;16.70;99.90;;;;;;4979698;28;20038;-74
2022/11/01 12:28:13;;;;;;;9.32;1.98;;;16.70;99.90;;;;;;4978466;28;20566;-75
2022/11/01 12:30:41;;;;;;;5.05;1.95;;;16.70;99.90;;;;;;4979710;28;20038;-74
2022/11/01 12:33:25;;;;;;;6.88;1.40;;;16.70;99.90;;;;;;4984096;28;20396;-75
2022/11/01 12:35:53;;;;;;;10.13;2.15;;;16.60;99.90;;;;;;4981118;28;20046;-75
2022/11/01 12:38:38;;;;;;;6.47;1.15;;;16.60;99.90;;;;;;4979717;28;20141;-75
2022/11/01 12:41:27;;;;;;;9.07;2.17;;;16.50;99.90;;;;;;4979749;28;20328;-75
2022/11/01 12:44:02;;;;;;;5.53;1.38;;;16.50;99.90;;;;;;4981499;28;20038;-75
2022/11/01 12:46:43;;;;;;;7.80;1.40;;;16.50;99.90;;;;;;4984496;28;20207;-75
2022/11/01 12:49:28;;;;;;;10.35;1.30;;;16.40;99.90;;;;;;4997074;28;20084;-75
2022/11/01 12:51:59;;;;;;;5.45;1.05;;;16.50;99.90;;;;;;4983421;28;20104;-75
2022/11/01 12:55:06;;;;;;;7.97;1.23;;;16.50;99.90;;;;;;5001017;28;20639;-75
2022/11/01 12:57:32;;;;;;;6.25;1.48;;;16.50;99.90;;;;;;4981647;28;20053;-75
2022/11/01 12:59:59;;;;;;;7.72;1.55;;;16.60;99.90;;;;;;4996019;28;20552;-75
2022/11/01 13:02:55;;;;;;;8.88;1.27;;;16.70;99.90;;;;;;4983656;28;20053;-75
2022/11/01 13:05:28;;;;;;;8.95;1.42;;;16.80;99.90;;;;;;4981755;28;20050;-75